sensor_id;sensor_type;location;lat;lon;timestamp;P1;durP1;ratioP1;P2;durP2;ratioP2
18190;SDS011;47004;51.366;12.348;2022-12-10T00:01:46;42.87;;;15.77;;
18190;SDS011;47004;51.366;12.348;2022-12-10T00:03:50;43.30;;;17.00;;
18190;SDS011;47004;51.366;12.348;2022-12-10T00:05:52;48.97;;;17.33;;
18190;SDS011;47004;51.366;12.348;2022-12-10T00:07:55;40.73;;;16.00;;
18190;SDS011;47004;51.366;12.348;2022-12-10T00:10:00;44.83;;;16.50;;
18190;SDS011;47004;51.366;12.348;2022-12-10T00:12:02;47.37;;;16.13;;
18190;SDS011;47004;51.366;12.348;2022-12-10T00:14:04;45.40;;;15.90;;
18190;SDS011;47004;51.366;12.348;2022-12-10T00:16:09;42.90;;;16.07;;
18190;SDS011;47004;51.366;12.348;2022-12-10T00:18:12;43.83;;;14.97;;
18190;SDS011;47004;51.366;12.348;2022-12-10T00:20:14;41.83;;;15.97;;
18190;SDS011;47004;51.366;12.348;2022-12-10T00:22:16;39.60;;;14.67;;
18190;SDS011;47004;51.366;12.348;2022-12-10T00:24:19;43.57;;;15.13;;
18190;SDS011;47004;51.366;12.348;2022-12-10T00:26:22;45.30;;;15.47;;
18190;SDS011;47004;51.366;12.348;2022-12-10T00:28:26;44.13;;;15.40;;
18190;SDS011;47004;51.366;12.348;2022-12-10T00:30:28;42.67;;;14.87;;
18190;SDS011;47004;51.366;12.348;2022-12-10T00:32:30;41.47;;;15.07;;
18190;SDS011;47004;51.366;12.348;2022-12-10T00:34:32;38.43;;;14.53;;
18190;SDS011;47004;51.366;12.348;2022-12-10T00:36:34;36.87;;;14.13;;
18190;SDS011;47004;51.366;12.348;2022-12-10T00:38:39;39.80;;;14.40;;
18190;SDS011;47004;51.366;12.348;2022-12-10T00:40:43;41.20;;;15.30;;
18190;SDS011;47004;51.366;12.348;2022-12-10T00:42:45;40.70;;;14.97;;
18190;SDS011;47004;51.366;12.348;2022-12-10T00:44:47;40.70;;;15.00;;
18190;SDS011;47004;51.366;12.348;2022-12-10T00:46:49;42.17;;;15.63;;
18190;SDS011;47004;51.366;12.348;2022-12-10T00:48:53;39.23;;;15.03;;
18190;SDS011;47004;51.366;12.348;2022-12-10T00:50:56;41.27;;;14.97;;
18190;SDS011;47004;51.366;12.348;2022-12-10T00:52:59;40.30;;;15.17;;
18190;SDS011;47004;51.366;12.348;2022-12-10T00:55:01;42.87;;;15.27;;
18190;SDS011;47004;51.366;12.348;2022-12-10T00:57:05;38.80;;;15.53;;
18190;SDS011;47004;51.366;12.348;2022-12-10T00:59:07;39.97;;;14.60;;
18190;SDS011;47004;51.366;12.348;2022-12-10T01:01:12;44.97;;;15.13;;
18190;SDS011;47004;51.366;12.348;2022-12-10T01:03:17;42.80;;;15.47;;
18190;SDS011;47004;51.366;12.348;2022-12-10T01:05:19;40.80;;;15.37;;
18190;SDS011;47004;51.366;12.348;2022-12-10T01:07:21;40.67;;;15.73;;
18190;SDS011;47004;51.366;12.348;2022-12-10T01:09:24;40.73;;;15.43;;
18190;SDS011;47004;51.366;12.348;2022-12-10T01:11:28;41.03;;;14.93;;
18190;SDS011;47004;51.366;12.348;2022-12-10T01:13:33;43.67;;;14.80;;
18190;SDS011;47004;51.366;12.348;2022-12-10T01:15:36;37.20;;;15.03;;
18190;SDS011;47004;51.366;12.348;2022-12-10T01:17:39;42.93;;;15.93;;
18190;SDS011;47004;51.366;12.348;2022-12-10T01:19:41;42.77;;;15.73;;
18190;SDS011;47004;51.366;12.348;2022-12-10T01:21:43;40.50;;;15.30;;
18190;SDS011;47004;51.366;12.348;2022-12-10T01:23:47;36.63;;;13.90;;
18190;SDS011;47004;51.366;12.348;2022-12-10T01:25:50;47.73;;;16.40;;
18190;SDS011;47004;51.366;12.348;2022-12-10T01:27:52;44.37;;;16.40;;
18190;SDS011;47004;51.366;12.348;2022-12-10T01:29:55;44.40;;;16.80;;
18190;SDS011;47004;51.366;12.348;2022-12-10T01:31:57;48.10;;;14.90;;
18190;SDS011;47004;51.366;12.348;2022-12-10T01:33:59;45.93;;;16.20;;
18190;SDS011;47004;51.366;12.348;2022-12-10T01:36:02;37.90;;;15.33;;
18190;SDS011;47004;51.366;12.348;2022-12-10T01:38:05;40.37;;;15.07;;
18190;SDS011;47004;51.366;12.348;2022-12-10T01:40:08;40.93;;;16.33;;
18190;SDS011;47004;51.366;12.348;2022-12-10T01:42:12;46.27;;;16.80;;
18190;SDS011;47004;51.366;12.348;2022-12-10T01:46:56;41.33;;;15.17;;
18190;SDS011;47004;51.366;12.348;2022-12-10T01:48:59;42.50;;;15.47;;
18190;SDS011;47004;51.366;12.348;2022-12-10T01:51:03;44.17;;;15.60;;
18190;SDS011;47004;51.366;12.348;2022-12-10T01:53:05;43.40;;;15.50;;
18190;SDS011;47004;51.366;12.348;2022-12-10T01:55:34;41.93;;;15.37;;
18190;SDS011;47004;51.366;12.348;2022-12-10T01:57:40;38.13;;;14.33;;
18190;SDS011;47004;51.366;12.348;2022-12-10T01:59:42;37.37;;;14.53;;
18190;SDS011;47004;51.366;12.348;2022-12-10T02:01:47;37.17;;;14.20;;
18190;SDS011;47004;51.366;12.348;2022-12-10T02:03:59;42.23;;;15.20;;
18190;SDS011;47004;51.366;12.348;2022-12-10T02:06:16;42.03;;;15.00;;
18190;SDS011;47004;51.366;12.348;2022-12-10T02:08:30;36.67;;;13.80;;
18190;SDS011;47004;51.366;12.348;2022-12-10T02:10:44;41.03;;;13.73;;
18190;SDS011;47004;51.366;12.348;2022-12-10T02:12:57;37.77;;;13.07;;
18190;SDS011;47004;51.366;12.348;2022-12-10T02:15:06;42.80;;;15.47;;
18190;SDS011;47004;51.366;12.348;2022-12-10T02:17:15;42.33;;;15.60;;
18190;SDS011;47004;51.366;12.348;2022-12-10T02:19:23;45.63;;;16.33;;
18190;SDS011;47004;51.366;12.348;2022-12-10T02:21:36;39.77;;;15.10;;
18190;SDS011;47004;51.366;12.348;2022-12-10T02:23:42;41.57;;;14.67;;
18190;SDS011;47004;51.366;12.348;2022-12-10T02:25:48;38.23;;;14.77;;
18190;SDS011;47004;51.366;12.348;2022-12-10T02:27:54;37.87;;;13.63;;
18190;SDS011;47004;51.366;12.348;2022-12-10T02:30:04;41.00;;;13.90;;
18190;SDS011;47004;51.366;12.348;2022-12-10T02:32:09;36.47;;;14.00;;
18190;SDS011;47004;51.366;12.348;2022-12-10T02:34:14;34.07;;;12.43;;
18190;SDS011;47004;51.366;12.348;2022-12-10T02:36:19;36.17;;;13.47;;
18190;SDS011;47004;51.366;12.348;2022-12-10T02:38:24;37.00;;;13.20;;
18190;SDS011;47004;51.366;12.348;2022-12-10T02:40:29;33.90;;;13.30;;
18190;SDS011;47004;51.366;12.348;2022-12-10T02:42:34;32.70;;;12.17;;
18190;SDS011;47004;51.366;12.348;2022-12-10T02:44:40;28.60;;;11.37;;
18190;SDS011;47004;51.366;12.348;2022-12-10T02:46:45;31.93;;;12.43;;
18190;SDS011;47004;51.366;12.348;2022-12-10T02:48:50;33.63;;;12.40;;
18190;SDS011;47004;51.366;12.348;2022-12-10T02:50:53;33.90;;;12.77;;
18190;SDS011;47004;51.366;12.348;2022-12-10T02:52:55;37.57;;;12.70;;
18190;SDS011;47004;51.366;12.348;2022-12-10T02:54:57;38.73;;;12.77;;
18190;SDS011;47004;51.366;12.348;2022-12-10T02:56:59;33.93;;;13.40;;
18190;SDS011;47004;51.366;12.348;2022-12-10T02:59:07;31.53;;;12.40;;
18190;SDS011;47004;51.366;12.348;2022-12-10T03:01:19;36.37;;;13.37;;
18190;SDS011;47004;51.366;12.348;2022-12-10T03:03:37;41.47;;;13.87;;
18190;SDS011;47004;51.366;12.348;2022-12-10T03:05:46;39.20;;;14.03;;
18190;SDS011;47004;51.366;12.348;2022-12-10T03:07:55;38.50;;;13.80;;
18190;SDS011;47004;51.366;12.348;2022-12-10T03:10:01;36.17;;;12.80;;
18190;SDS011;47004;51.366;12.348;2022-12-10T03:12:06;33.27;;;12.93;;
18190;SDS011;47004;51.366;12.348;2022-12-10T03:14:14;32.13;;;12.63;;
18190;SDS011;47004;51.366;12.348;2022-12-10T03:16:22;36.93;;;13.07;;
18190;SDS011;47004;51.366;12.348;2022-12-10T03:18:26;33.90;;;12.50;;
18190;SDS011;47004;51.366;12.348;2022-12-10T03:20:33;35.43;;;13.77;;
18190;SDS011;47004;51.366;12.348;2022-12-10T03:22:38;34.83;;;12.83;;
18190;SDS011;47004;51.366;12.348;2022-12-10T03:24:43;34.63;;;13.73;;
18190;SDS011;47004;51.366;12.348;2022-12-10T03:26:45;34.60;;;14.13;;
18190;SDS011;47004;51.366;12.348;2022-12-10T03:28:49;33.97;;;13.07;;
18190;SDS011;47004;51.366;12.348;2022-12-10T03:30:53;35.87;;;13.80;;
18190;SDS011;47004;51.366;12.348;2022-12-10T03:32:58;36.07;;;12.73;;
18190;SDS011;47004;51.366;12.348;2022-12-10T03:35:00;34.30;;;13.10;;
18190;SDS011;47004;51.366;12.348;2022-12-10T03:37:04;35.90;;;12.57;;
18190;SDS011;47004;51.366;12.348;2022-12-10T03:39:07;33.97;;;13.67;;
18190;SDS011;47004;51.366;12.348;2022-12-10T03:41:10;35.50;;;14.00;;
18190;SDS011;47004;51.366;12.348;2022-12-10T03:43:12;36.77;;;12.83;;
18190;SDS011;47004;51.366;12.348;2022-12-10T03:45:14;37.57;;;13.60;;
18190;SDS011;47004;51.366;12.348;2022-12-10T03:47:16;39.63;;;14.97;;
18190;SDS011;47004;51.366;12.348;2022-12-10T03:49:19;37.43;;;15.20;;
18190;SDS011;47004;51.366;12.348;2022-12-10T03:51:21;44.50;;;15.43;;
18190;SDS011;47004;51.366;12.348;2022-12-10T03:53:24;40.77;;;13.60;;
18190;SDS011;47004;51.366;12.348;2022-12-10T03:55:26;33.27;;;13.90;;
18190;SDS011;47004;51.366;12.348;2022-12-10T03:57:28;41.03;;;14.90;;
18190;SDS011;47004;51.366;12.348;2022-12-10T03:59:30;40.53;;;14.77;;
18190;SDS011;47004;51.366;12.348;2022-12-10T04:01:32;39.80;;;14.60;;
18190;SDS011;47004;51.366;12.348;2022-12-10T04:03:34;38.00;;;13.80;;
18190;SDS011;47004;51.366;12.348;2022-12-10T04:05:37;36.37;;;13.67;;
18190;SDS011;47004;51.366;12.348;2022-12-10T04:07:39;38.07;;;14.10;;
18190;SDS011;47004;51.366;12.348;2022-12-10T04:09:42;39.57;;;14.77;;
18190;SDS011;47004;51.366;12.348;2022-12-10T04:11:44;40.73;;;15.43;;
18190;SDS011;47004;51.366;12.348;2022-12-10T04:13:46;42.53;;;14.90;;
18190;SDS011;47004;51.366;12.348;2022-12-10T04:16:07;42.27;;;14.87;;
18190;SDS011;47004;51.366;12.348;2022-12-10T04:18:26;39.87;;;14.87;;
18190;SDS011;47004;51.366;12.348;2022-12-10T04:20:28;39.43;;;14.17;;
18190;SDS011;47004;51.366;12.348;2022-12-10T04:22:47;43.70;;;16.00;;
18190;SDS011;47004;51.366;12.348;2022-12-10T04:25:05;45.97;;;15.60;;
18190;SDS011;47004;51.366;12.348;2022-12-10T04:27:22;41.93;;;14.73;;
18190;SDS011;47004;51.366;12.348;2022-12-10T04:29:26;44.83;;;15.70;;
18190;SDS011;47004;51.366;12.348;2022-12-10T04:31:29;43.07;;;16.00;;
18190;SDS011;47004;51.366;12.348;2022-12-10T04:33:31;46.37;;;15.53;;
18190;SDS011;47004;51.366;12.348;2022-12-10T04:35:33;45.23;;;16.43;;
18190;SDS011;47004;51.366;12.348;2022-12-10T04:37:35;45.53;;;14.90;;
18190;SDS011;47004;51.366;12.348;2022-12-10T04:39:38;49.73;;;16.10;;
18190;SDS011;47004;51.366;12.348;2022-12-10T04:41:42;44.90;;;16.63;;
18190;SDS011;47004;51.366;12.348;2022-12-10T04:43:45;50.20;;;17.37;;
18190;SDS011;47004;51.366;12.348;2022-12-10T04:45:47;48.63;;;16.23;;
18190;SDS011;47004;51.366;12.348;2022-12-10T04:47:49;54.57;;;18.37;;
18190;SDS011;47004;51.366;12.348;2022-12-10T04:49:51;44.83;;;16.50;;
18190;SDS011;47004;51.366;12.348;2022-12-10T04:51:53;43.50;;;14.93;;
18190;SDS011;47004;51.366;12.348;2022-12-10T04:53:55;45.70;;;16.03;;
18190;SDS011;47004;51.366;12.348;2022-12-10T04:55:57;43.63;;;16.40;;
18190;SDS011;47004;51.366;12.348;2022-12-10T04:58:02;50.33;;;16.33;;
18190;SDS011;47004;51.366;12.348;2022-12-10T05:00:04;45.33;;;15.53;;
18190;SDS011;47004;51.366;12.348;2022-12-10T05:02:07;50.07;;;15.40;;
18190;SDS011;47004;51.366;12.348;2022-12-10T05:04:11;41.03;;;14.77;;
18190;SDS011;47004;51.366;12.348;2022-12-10T05:06:15;41.10;;;15.30;;
18190;SDS011;47004;51.366;12.348;2022-12-10T05:08:18;43.13;;;14.63;;
18190;SDS011;47004;51.366;12.348;2022-12-10T05:10:20;48.00;;;16.57;;
18190;SDS011;47004;51.366;12.348;2022-12-10T05:12:22;45.83;;;16.57;;
18190;SDS011;47004;51.366;12.348;2022-12-10T05:14:25;40.13;;;15.17;;
18190;SDS011;47004;51.366;12.348;2022-12-10T05:16:28;50.40;;;16.90;;
18190;SDS011;47004;51.366;12.348;2022-12-10T05:18:31;49.97;;;17.30;;
18190;SDS011;47004;51.366;12.348;2022-12-10T05:20:33;49.30;;;17.57;;
18190;SDS011;47004;51.366;12.348;2022-12-10T05:22:35;45.83;;;16.17;;
18190;SDS011;47004;51.366;12.348;2022-12-10T05:24:55;49.87;;;16.27;;
18190;SDS011;47004;51.366;12.348;2022-12-10T05:26:58;47.87;;;17.13;;
18190;SDS011;47004;51.366;12.348;2022-12-10T05:29:00;47.83;;;16.50;;
18190;SDS011;47004;51.366;12.348;2022-12-10T05:31:04;48.57;;;16.03;;
18190;SDS011;47004;51.366;12.348;2022-12-10T05:33:12;49.80;;;15.77;;
18190;SDS011;47004;51.366;12.348;2022-12-10T05:35:14;50.00;;;16.90;;
18190;SDS011;47004;51.366;12.348;2022-12-10T05:37:16;50.13;;;16.70;;
18190;SDS011;47004;51.366;12.348;2022-12-10T05:39:17;47.50;;;17.30;;
18190;SDS011;47004;51.366;12.348;2022-12-10T05:41:20;44.70;;;15.57;;
18190;SDS011;47004;51.366;12.348;2022-12-10T05:43:23;42.97;;;16.13;;
18190;SDS011;47004;51.366;12.348;2022-12-10T05:45:25;44.37;;;15.03;;
18190;SDS011;47004;51.366;12.348;2022-12-10T05:47:28;52.00;;;17.93;;
18190;SDS011;47004;51.366;12.348;2022-12-10T05:49:30;48.57;;;16.73;;
18190;SDS011;47004;51.366;12.348;2022-12-10T05:51:33;48.40;;;16.33;;
18190;SDS011;47004;51.366;12.348;2022-12-10T05:53:36;54.00;;;16.70;;
18190;SDS011;47004;51.366;12.348;2022-12-10T05:55:38;47.50;;;17.37;;
18190;SDS011;47004;51.366;12.348;2022-12-10T05:57:40;52.67;;;17.70;;
18190;SDS011;47004;51.366;12.348;2022-12-10T05:59:42;51.67;;;16.03;;
18190;SDS011;47004;51.366;12.348;2022-12-10T06:01:44;52.53;;;17.27;;
18190;SDS011;47004;51.366;12.348;2022-12-10T06:03:48;48.73;;;16.73;;
18190;SDS011;47004;51.366;12.348;2022-12-10T06:05:52;50.00;;;17.70;;
18190;SDS011;47004;51.366;12.348;2022-12-10T06:07:54;56.77;;;17.73;;
18190;SDS011;47004;51.366;12.348;2022-12-10T06:09:56;54.93;;;17.27;;
18190;SDS011;47004;51.366;12.348;2022-12-10T06:11:58;47.43;;;17.17;;
18190;SDS011;47004;51.366;12.348;2022-12-10T06:14:00;45.50;;;16.73;;
18190;SDS011;47004;51.366;12.348;2022-12-10T06:16:03;48.47;;;16.87;;
18190;SDS011;47004;51.366;12.348;2022-12-10T06:18:06;56.87;;;19.00;;
18190;SDS011;47004;51.366;12.348;2022-12-10T06:20:14;48.63;;;17.13;;
18190;SDS011;47004;51.366;12.348;2022-12-10T06:22:15;50.27;;;16.77;;
18190;SDS011;47004;51.366;12.348;2022-12-10T06:24:17;49.37;;;17.17;;
18190;SDS011;47004;51.366;12.348;2022-12-10T06:26:20;47.97;;;16.97;;
18190;SDS011;47004;51.366;12.348;2022-12-10T06:28:23;49.33;;;16.40;;
18190;SDS011;47004;51.366;12.348;2022-12-10T06:30:25;50.90;;;16.43;;
18190;SDS011;47004;51.366;12.348;2022-12-10T06:32:27;43.97;;;16.47;;
18190;SDS011;47004;51.366;12.348;2022-12-10T06:34:32;52.53;;;17.27;;
18190;SDS011;47004;51.366;12.348;2022-12-10T06:36:35;50.87;;;16.77;;
18190;SDS011;47004;51.366;12.348;2022-12-10T06:38:38;52.27;;;17.13;;
18190;SDS011;47004;51.366;12.348;2022-12-10T06:40:40;42.40;;;15.17;;
18190;SDS011;47004;51.366;12.348;2022-12-10T06:42:42;47.07;;;15.83;;
18190;SDS011;47004;51.366;12.348;2022-12-10T06:44:44;48.83;;;16.50;;
18190;SDS011;47004;51.366;12.348;2022-12-10T06:46:46;44.77;;;15.43;;
18190;SDS011;47004;51.366;12.348;2022-12-10T06:48:47;48.83;;;16.87;;
18190;SDS011;47004;51.366;12.348;2022-12-10T06:50:50;51.03;;;16.87;;
18190;SDS011;47004;51.366;12.348;2022-12-10T06:52:53;46.80;;;15.77;;
18190;SDS011;47004;51.366;12.348;2022-12-10T06:54:56;47.63;;;16.60;;
18190;SDS011;47004;51.366;12.348;2022-12-10T06:56:58;45.90;;;17.27;;
18190;SDS011;47004;51.366;12.348;2022-12-10T06:59:03;51.47;;;15.97;;
18190;SDS011;47004;51.366;12.348;2022-12-10T07:01:07;47.40;;;16.73;;
18190;SDS011;47004;51.366;12.348;2022-12-10T07:03:10;50.50;;;16.80;;
18190;SDS011;47004;51.366;12.348;2022-12-10T07:05:12;50.10;;;16.60;;
18190;SDS011;47004;51.366;12.348;2022-12-10T07:07:14;52.43;;;17.07;;
18190;SDS011;47004;51.366;12.348;2022-12-10T07:09:17;49.53;;;16.87;;
18190;SDS011;47004;51.366;12.348;2022-12-10T07:11:20;49.23;;;15.73;;
18190;SDS011;47004;51.366;12.348;2022-12-10T07:13:23;52.37;;;17.40;;
18190;SDS011;47004;51.366;12.348;2022-12-10T07:15:26;52.03;;;17.20;;
18190;SDS011;47004;51.366;12.348;2022-12-10T07:17:28;52.17;;;17.03;;
18190;SDS011;47004;51.366;12.348;2022-12-10T07:19:30;53.20;;;18.17;;
18190;SDS011;47004;51.366;12.348;2022-12-10T07:21:32;49.67;;;16.87;;
18190;SDS011;47004;51.366;12.348;2022-12-10T07:23:36;45.40;;;15.60;;
18190;SDS011;47004;51.366;12.348;2022-12-10T07:25:40;49.93;;;16.70;;
18190;SDS011;47004;51.366;12.348;2022-12-10T07:27:42;48.40;;;16.13;;
18190;SDS011;47004;51.366;12.348;2022-12-10T07:29:44;46.83;;;15.73;;
18190;SDS011;47004;51.366;12.348;2022-12-10T07:31:47;50.43;;;16.40;;
18190;SDS011;47004;51.366;12.348;2022-12-10T07:33:50;44.40;;;16.23;;
18190;SDS011;47004;51.366;12.348;2022-12-10T07:35:53;46.53;;;16.03;;
18190;SDS011;47004;51.366;12.348;2022-12-10T07:37:56;45.63;;;15.90;;
18190;SDS011;47004;51.366;12.348;2022-12-10T07:39:58;44.90;;;15.47;;
18190;SDS011;47004;51.366;12.348;2022-12-10T07:42:02;46.43;;;15.97;;
18190;SDS011;47004;51.366;12.348;2022-12-10T07:44:04;45.30;;;16.10;;
18190;SDS011;47004;51.366;12.348;2022-12-10T07:46:09;48.67;;;15.37;;
18190;SDS011;47004;51.366;12.348;2022-12-10T07:48:12;49.03;;;16.43;;
18190;SDS011;47004;51.366;12.348;2022-12-10T07:50:15;49.27;;;14.97;;
18190;SDS011;47004;51.366;12.348;2022-12-10T07:52:17;38.47;;;12.80;;
18190;SDS011;47004;51.366;12.348;2022-12-10T07:54:19;44.60;;;15.27;;
18190;SDS011;47004;51.366;12.348;2022-12-10T07:56:21;47.70;;;15.00;;
18190;SDS011;47004;51.366;12.348;2022-12-10T07:58:26;44.07;;;14.87;;
18190;SDS011;47004;51.366;12.348;2022-12-10T08:00:28;44.47;;;15.63;;
18190;SDS011;47004;51.366;12.348;2022-12-10T08:02:32;46.33;;;16.17;;
18190;SDS011;47004;51.366;12.348;2022-12-10T08:04:34;42.13;;;14.97;;
18190;SDS011;47004;51.366;12.348;2022-12-10T08:06:37;45.03;;;15.03;;
18190;SDS011;47004;51.366;12.348;2022-12-10T08:08:39;48.90;;;15.10;;
18190;SDS011;47004;51.366;12.348;2022-12-10T08:10:42;46.27;;;15.77;;
18190;SDS011;47004;51.366;12.348;2022-12-10T08:12:44;39.77;;;14.50;;
18190;SDS011;47004;51.366;12.348;2022-12-10T08:14:48;41.87;;;13.70;;
18190;SDS011;47004;51.366;12.348;2022-12-10T08:16:50;40.30;;;14.27;;
18190;SDS011;47004;51.366;12.348;2022-12-10T08:18:52;40.37;;;15.07;;
18190;SDS011;47004;51.366;12.348;2022-12-10T08:20:54;47.73;;;17.03;;
18190;SDS011;47004;51.366;12.348;2022-12-10T08:23:05;45.83;;;16.80;;
18190;SDS011;47004;51.366;12.348;2022-12-10T08:25:07;46.90;;;16.73;;
18190;SDS011;47004;51.366;12.348;2022-12-10T08:27:10;49.77;;;16.33;;
18190;SDS011;47004;51.366;12.348;2022-12-10T08:29:15;44.80;;;16.10;;
18190;SDS011;47004;51.366;12.348;2022-12-10T08:31:19;52.07;;;18.60;;
18190;SDS011;47004;51.366;12.348;2022-12-10T08:33:21;48.13;;;17.27;;
18190;SDS011;47004;51.366;12.348;2022-12-10T08:35:23;46.33;;;15.77;;
18190;SDS011;47004;51.366;12.348;2022-12-10T08:37:25;42.37;;;15.73;;
18190;SDS011;47004;51.366;12.348;2022-12-10T08:39:27;42.27;;;16.23;;
18190;SDS011;47004;51.366;12.348;2022-12-10T08:41:30;49.27;;;16.80;;
18190;SDS011;47004;51.366;12.348;2022-12-10T08:43:31;45.60;;;16.07;;
18190;SDS011;47004;51.366;12.348;2022-12-10T08:45:34;44.90;;;16.17;;
18190;SDS011;47004;51.366;12.348;2022-12-10T08:47:37;46.97;;;17.10;;
18190;SDS011;47004;51.366;12.348;2022-12-10T08:49:39;46.90;;;16.23;;
18190;SDS011;47004;51.366;12.348;2022-12-10T08:51:41;44.97;;;16.07;;
18190;SDS011;47004;51.366;12.348;2022-12-10T08:53:43;44.13;;;16.27;;
18190;SDS011;47004;51.366;12.348;2022-12-10T08:55:45;43.37;;;15.40;;
18190;SDS011;47004;51.366;12.348;2022-12-10T08:57:50;43.27;;;15.10;;
18190;SDS011;47004;51.366;12.348;2022-12-10T08:59:52;50.50;;;17.00;;
18190;SDS011;47004;51.366;12.348;2022-12-10T09:01:54;39.80;;;15.57;;
18190;SDS011;47004;51.366;12.348;2022-12-10T09:03:57;42.30;;;16.10;;
18190;SDS011;47004;51.366;12.348;2022-12-10T09:06:04;43.13;;;15.63;;
18190;SDS011;47004;51.366;12.348;2022-12-10T09:08:06;45.27;;;15.57;;
18190;SDS011;47004;51.366;12.348;2022-12-10T09:10:09;44.33;;;16.33;;
18190;SDS011;47004;51.366;12.348;2022-12-10T09:12:11;44.00;;;15.50;;
18190;SDS011;47004;51.366;12.348;2022-12-10T09:14:13;41.87;;;14.93;;
18190;SDS011;47004;51.366;12.348;2022-12-10T09:16:15;49.50;;;17.47;;
18190;SDS011;47004;51.366;12.348;2022-12-10T09:18:17;50.80;;;17.50;;
18190;SDS011;47004;51.366;12.348;2022-12-10T09:20:21;45.40;;;15.17;;
18190;SDS011;47004;51.366;12.348;2022-12-10T09:22:23;45.03;;;16.80;;
18190;SDS011;47004;51.366;12.348;2022-12-10T09:24:25;48.07;;;16.03;;
18190;SDS011;47004;51.366;12.348;2022-12-10T09:26:27;52.93;;;17.87;;
18190;SDS011;47004;51.366;12.348;2022-12-10T09:28:29;45.67;;;16.90;;
18190;SDS011;47004;51.366;12.348;2022-12-10T09:30:31;43.27;;;15.50;;
18190;SDS011;47004;51.366;12.348;2022-12-10T09:32:33;49.10;;;17.30;;
18190;SDS011;47004;51.366;12.348;2022-12-10T09:34:36;47.00;;;17.20;;
18190;SDS011;47004;51.366;12.348;2022-12-10T09:36:40;46.00;;;16.43;;
18190;SDS011;47004;51.366;12.348;2022-12-10T09:38:42;42.20;;;15.97;;
18190;SDS011;47004;51.366;12.348;2022-12-10T09:40:46;52.20;;;18.67;;
18190;SDS011;47004;51.366;12.348;2022-12-10T09:42:53;48.50;;;16.97;;
18190;SDS011;47004;51.366;12.348;2022-12-10T09:45:01;49.83;;;17.30;;
18190;SDS011;47004;51.366;12.348;2022-12-10T09:47:07;46.93;;;16.87;;
18190;SDS011;47004;51.366;12.348;2022-12-10T09:49:11;49.90;;;18.20;;
18190;SDS011;47004;51.366;12.348;2022-12-10T09:51:22;46.63;;;17.17;;
18190;SDS011;47004;51.366;12.348;2022-12-10T09:53:28;47.80;;;17.00;;
18190;SDS011;47004;51.366;12.348;2022-12-10T09:55:32;46.83;;;18.00;;
18190;SDS011;47004;51.366;12.348;2022-12-10T09:57:38;44.70;;;16.60;;
18190;SDS011;47004;51.366;12.348;2022-12-10T09:59:44;46.63;;;16.33;;
18190;SDS011;47004;51.366;12.348;2022-12-10T10:01:51;46.37;;;17.03;;
18190;SDS011;47004;51.366;12.348;2022-12-10T10:04:04;48.17;;;16.43;;
18190;SDS011;47004;51.366;12.348;2022-12-10T10:06:08;46.80;;;16.40;;
18190;SDS011;47004;51.366;12.348;2022-12-10T10:08:13;43.73;;;16.47;;
18190;SDS011;47004;51.366;12.348;2022-12-10T10:10:25;44.20;;;16.03;;
18190;SDS011;47004;51.366;12.348;2022-12-10T10:12:29;43.60;;;15.73;;
18190;SDS011;47004;51.366;12.348;2022-12-10T10:14:33;42.00;;;15.87;;
18190;SDS011;47004;51.366;12.348;2022-12-10T10:16:35;43.53;;;15.57;;
18190;SDS011;47004;51.366;12.348;2022-12-10T10:18:41;46.63;;;17.10;;
18190;SDS011;47004;51.366;12.348;2022-12-10T10:20:46;39.67;;;14.77;;
18190;SDS011;47004;51.366;12.348;2022-12-10T10:22:48;39.53;;;15.90;;
18190;SDS011;47004;51.366;12.348;2022-12-10T10:24:50;49.10;;;17.33;;
18190;SDS011;47004;51.366;12.348;2022-12-10T10:26:54;47.23;;;16.13;;
18190;SDS011;47004;51.366;12.348;2022-12-10T10:28:59;41.93;;;15.80;;
18190;SDS011;47004;51.366;12.348;2022-12-10T10:31:07;43.33;;;16.07;;
18190;SDS011;47004;51.366;12.348;2022-12-10T10:33:18;37.87;;;13.73;;
18190;SDS011;47004;51.366;12.348;2022-12-10T10:35:25;36.80;;;14.33;;
18190;SDS011;47004;51.366;12.348;2022-12-10T10:37:30;41.60;;;15.17;;
18190;SDS011;47004;51.366;12.348;2022-12-10T10:39:41;40.60;;;16.27;;
18190;SDS011;47004;51.366;12.348;2022-12-10T10:41:50;39.57;;;14.80;;
18190;SDS011;47004;51.366;12.348;2022-12-10T10:43:59;41.43;;;15.27;;
18190;SDS011;47004;51.366;12.348;2022-12-10T10:46:04;36.00;;;13.67;;
18190;SDS011;47004;51.366;12.348;2022-12-10T10:48:13;36.27;;;14.30;;
18190;SDS011;47004;51.366;12.348;2022-12-10T10:50:23;38.43;;;14.27;;
18190;SDS011;47004;51.366;12.348;2022-12-10T10:52:27;33.10;;;13.10;;
18190;SDS011;47004;51.366;12.348;2022-12-10T10:54:32;34.03;;;13.87;;
18190;SDS011;47004;51.366;12.348;2022-12-10T10:56:38;37.13;;;13.70;;
18190;SDS011;47004;51.366;12.348;2022-12-10T10:58:47;32.40;;;13.67;;
18190;SDS011;47004;51.366;12.348;2022-12-10T11:00:57;35.23;;;14.23;;
18190;SDS011;47004;51.366;12.348;2022-12-10T11:03:00;36.03;;;13.43;;
18190;SDS011;47004;51.366;12.348;2022-12-10T11:05:07;32.33;;;14.03;;
18190;SDS011;47004;51.366;12.348;2022-12-10T11:07:19;30.30;;;12.07;;
18190;SDS011;47004;51.366;12.348;2022-12-10T11:09:26;36.87;;;14.53;;
18190;SDS011;47004;51.366;12.348;2022-12-10T11:11:31;32.23;;;12.87;;
18190;SDS011;47004;51.366;12.348;2022-12-10T11:13:35;32.30;;;12.73;;
18190;SDS011;47004;51.366;12.348;2022-12-10T11:15:38;34.33;;;14.10;;
18190;SDS011;47004;51.366;12.348;2022-12-10T11:17:47;32.20;;;13.13;;
18190;SDS011;47004;51.366;12.348;2022-12-10T11:19:54;32.67;;;13.10;;
18190;SDS011;47004;51.366;12.348;2022-12-10T11:22:05;30.07;;;12.80;;
18190;SDS011;47004;51.366;12.348;2022-12-10T11:24:22;26.43;;;11.97;;
18190;SDS011;47004;51.366;12.348;2022-12-10T11:26:37;31.37;;;13.90;;
18190;SDS011;47004;51.366;12.348;2022-12-10T11:29:02;32.77;;;13.80;;
18190;SDS011;47004;51.366;12.348;2022-12-10T11:31:14;33.93;;;13.57;;
18190;SDS011;47004;51.366;12.348;2022-12-10T11:33:30;32.63;;;13.47;;
18190;SDS011;47004;51.366;12.348;2022-12-10T11:35:43;36.77;;;14.47;;
18190;SDS011;47004;51.366;12.348;2022-12-10T11:37:55;34.47;;;14.53;;
18190;SDS011;47004;51.366;12.348;2022-12-10T11:40:08;34.03;;;13.37;;
18190;SDS011;47004;51.366;12.348;2022-12-10T11:42:26;33.00;;;13.80;;
18190;SDS011;47004;51.366;12.348;2022-12-10T11:44:39;31.43;;;13.43;;
18190;SDS011;47004;51.366;12.348;2022-12-10T11:47:01;41.20;;;15.20;;
18190;SDS011;47004;51.366;12.348;2022-12-10T11:49:23;37.70;;;14.73;;
18190;SDS011;47004;51.366;12.348;2022-12-10T11:51:34;34.87;;;14.10;;
18190;SDS011;47004;51.366;12.348;2022-12-10T11:53:45;36.03;;;14.63;;
18190;SDS011;47004;51.366;12.348;2022-12-10T11:55:57;35.40;;;13.90;;
18190;SDS011;47004;51.366;12.348;2022-12-10T11:58:11;36.80;;;14.27;;
18190;SDS011;47004;51.366;12.348;2022-12-10T12:00:24;31.20;;;12.33;;
18190;SDS011;47004;51.366;12.348;2022-12-10T12:02:44;34.20;;;14.47;;